<?xml version="1.0" encoding="UTF-8" standalone="no" ?>
<gpx xmlns="http://www.topografix.com/GPX/1/1" xmlns:xsi="http://www.w3.org/2001/XMLSchema-instance" xsi:schemaLocation="http://www.topografix.com/GPX/1/1 http://www.topografix.com/GPX/1/1/gpx.xsd" version="1.1" creator="VisuGPX - https://www.visugpx.com">
  <metadata>
    <name>Port -Lesney-Chapelle de Lorette-Champagne sur Loue-Belv.Edgar Faure.</name>
  </metadata>
  <trk>
    <name><![CDATA[15680013-Port Lesney]]></name>
    <extensions>
      <line xmlns="http://www.topografix.com/GPX/gpx_style/0/2">
        <color>0000FF</color>
        <width>4</width>
      </line>
    </extensions>
    <trkseg>
      <trkpt lat="47.00345" lon="5.8234">
        <ele>247</ele>
        <time>2022-10-13T14:52:26Z</time>
      </trkpt>
      <trkpt lat="47.00359" lon="5.82335">
        <ele>247</ele>
        <time>2022-10-13T14:52:45Z</time>
      </trkpt>
      <trkpt lat="47.00371" lon="5.82226">
        <ele>245</ele>
        <time>2022-10-13T14:54:26Z</time>
      </trkpt>
      <trkpt lat="47.00355" lon="5.82232">
        <ele>245</ele>
        <time>2022-10-13T14:54:48Z</time>
      </trkpt>
      <trkpt lat="47.00228" lon="5.82271">
        <ele>247</ele>
        <time>2022-10-13T14:57:41Z</time>
      </trkpt>
      <trkpt lat="47.00224" lon="5.82267">
        <ele>248</ele>
        <time>2022-10-13T14:57:47Z</time>
      </trkpt>
      <trkpt lat="47.00218" lon="5.82239">
        <ele>248</ele>
        <time>2022-10-13T14:58:14Z</time>
      </trkpt>
      <trkpt lat="47.00215" lon="5.82211">
        <ele>247</ele>
        <time>2022-10-13T14:58:40Z</time>
      </trkpt>
      <trkpt lat="47.00208" lon="5.82175">
        <ele>246</ele>
        <time>2022-10-13T14:59:14Z</time>
      </trkpt>
      <trkpt lat="47.00202" lon="5.82091">
        <ele>251</ele>
        <time>2022-10-13T15:00:31Z</time>
      </trkpt>
      <trkpt lat="47.00211" lon="5.82082">
        <ele>250</ele>
        <time>2022-10-13T15:00:45Z</time>
      </trkpt>
      <trkpt lat="47.00202" lon="5.82091">
        <ele>251</ele>
        <time>2022-10-13T15:01:00Z</time>
      </trkpt>
      <trkpt lat="47.00181" lon="5.82096">
        <ele>254</ele>
        <time>2022-10-13T15:01:28Z</time>
      </trkpt>
      <trkpt lat="47.0018" lon="5.82072">
        <ele>258</ele>
        <time>2022-10-13T15:01:50Z</time>
      </trkpt>
      <trkpt lat="47.00179" lon="5.82059">
        <ele>260</ele>
        <time>2022-10-13T15:02:02Z</time>
      </trkpt>
      <trkpt lat="47.00197" lon="5.81982">
        <ele>268</ele>
        <time>2022-10-13T15:03:16Z</time>
      </trkpt>
      <trkpt lat="47.00205" lon="5.81958">
        <ele>269</ele>
        <time>2022-10-13T15:03:40Z</time>
      </trkpt>
      <trkpt lat="47.00237" lon="5.81848">
        <ele>267</ele>
        <time>2022-10-13T15:05:29Z</time>
      </trkpt>
      <trkpt lat="47.0025" lon="5.8181">
        <ele>263</ele>
        <time>2022-10-13T15:06:08Z</time>
      </trkpt>
      <trkpt lat="47.00255" lon="5.81791">
        <ele>263</ele>
        <time>2022-10-13T15:06:26Z</time>
      </trkpt>
      <trkpt lat="47.00251" lon="5.81751">
        <ele>267</ele>
        <time>2022-10-13T15:07:03Z</time>
      </trkpt>
      <trkpt lat="47.00252" lon="5.81717">
        <ele>270</ele>
        <time>2022-10-13T15:07:34Z</time>
      </trkpt>
      <trkpt lat="47.00257" lon="5.8168">
        <ele>272</ele>
        <time>2022-10-13T15:08:09Z</time>
      </trkpt>
      <trkpt lat="47.00253" lon="5.81659">
        <ele>275</ele>
        <time>2022-10-13T15:08:28Z</time>
      </trkpt>
      <trkpt lat="47.00251" lon="5.81637">
        <ele>278</ele>
        <time>2022-10-13T15:08:49Z</time>
      </trkpt>
      <trkpt lat="47.00255" lon="5.81603">
        <ele>280</ele>
        <time>2022-10-13T15:09:20Z</time>
      </trkpt>
      <trkpt lat="47.00287" lon="5.81473">
        <ele>286</ele>
        <time>2022-10-13T15:11:26Z</time>
      </trkpt>
      <trkpt lat="47.00312" lon="5.8141">
        <ele>282</ele>
        <time>2022-10-13T15:12:32Z</time>
      </trkpt>
      <trkpt lat="47.00317" lon="5.81387">
        <ele>283</ele>
        <time>2022-10-13T15:12:54Z</time>
      </trkpt>
      <trkpt lat="47.00324" lon="5.8137">
        <ele>282</ele>
        <time>2022-10-13T15:13:12Z</time>
      </trkpt>
      <trkpt lat="47.00331" lon="5.8136">
        <ele>280</ele>
        <time>2022-10-13T15:13:25Z</time>
      </trkpt>
      <trkpt lat="47.0035" lon="5.81316">
        <ele>282</ele>
        <time>2022-10-13T15:14:13Z</time>
      </trkpt>
      <trkpt lat="47.00361" lon="5.81299">
        <ele>282</ele>
        <time>2022-10-13T15:14:34Z</time>
      </trkpt>
      <trkpt lat="47.0037" lon="5.81256">
        <ele>287</ele>
        <time>2022-10-13T15:15:15Z</time>
      </trkpt>
      <trkpt lat="47.00376" lon="5.81236">
        <ele>288</ele>
        <time>2022-10-13T15:15:35Z</time>
      </trkpt>
      <trkpt lat="47.00381" lon="5.81195">
        <ele>293</ele>
        <time>2022-10-13T15:16:13Z</time>
      </trkpt>
      <trkpt lat="47.0039" lon="5.81145">
        <ele>297</ele>
        <time>2022-10-13T15:17:00Z</time>
      </trkpt>
      <trkpt lat="47.00396" lon="5.81117">
        <ele>299</ele>
        <time>2022-10-13T15:17:26Z</time>
      </trkpt>
      <trkpt lat="47.00397" lon="5.81106">
        <ele>301</ele>
        <time>2022-10-13T15:17:37Z</time>
      </trkpt>
      <trkpt lat="47.00401" lon="5.81077">
        <ele>303</ele>
        <time>2022-10-13T15:18:03Z</time>
      </trkpt>
      <trkpt lat="47.00411" lon="5.81035">
        <ele>304</ele>
        <time>2022-10-13T15:18:44Z</time>
      </trkpt>
      <trkpt lat="47.00412" lon="5.80996">
        <ele>309</ele>
        <time>2022-10-13T15:19:19Z</time>
      </trkpt>
      <trkpt lat="47.00409" lon="5.80962">
        <ele>315</ele>
        <time>2022-10-13T15:19:51Z</time>
      </trkpt>
      <trkpt lat="47.00406" lon="5.8088">
        <ele>330</ele>
        <time>2022-10-13T15:21:05Z</time>
      </trkpt>
      <trkpt lat="47.0041" lon="5.80866">
        <ele>331</ele>
        <time>2022-10-13T15:21:19Z</time>
      </trkpt>
      <trkpt lat="47.00427" lon="5.80854">
        <ele>330</ele>
        <time>2022-10-13T15:21:44Z</time>
      </trkpt>
      <trkpt lat="47.00452" lon="5.80842">
        <ele>328</ele>
        <time>2022-10-13T15:22:19Z</time>
      </trkpt>
      <trkpt lat="47.0046" lon="5.80836">
        <ele>328</ele>
        <time>2022-10-13T15:22:31Z</time>
      </trkpt>
      <trkpt lat="47.00481" lon="5.80811">
        <ele>328</ele>
        <time>2022-10-13T15:23:08Z</time>
      </trkpt>
      <trkpt lat="47.00487" lon="5.80795">
        <ele>329</ele>
        <time>2022-10-13T15:23:24Z</time>
      </trkpt>
      <trkpt lat="47.00489" lon="5.80764">
        <ele>333</ele>
        <time>2022-10-13T15:23:53Z</time>
      </trkpt>
      <trkpt lat="47.00489" lon="5.80757">
        <ele>334</ele>
        <time>2022-10-13T15:23:59Z</time>
      </trkpt>
      <trkpt lat="47.00514" lon="5.80757">
        <ele>330</ele>
        <time>2022-10-13T15:24:32Z</time>
      </trkpt>
      <trkpt lat="47.00562" lon="5.80735">
        <ele>322</ele>
        <time>2022-10-13T15:25:39Z</time>
      </trkpt>
      <trkpt lat="47.006" lon="5.80714">
        <ele>315</ele>
        <time>2022-10-13T15:26:34Z</time>
      </trkpt>
      <trkpt lat="47.00623" lon="5.80705">
        <ele>311</ele>
        <time>2022-10-13T15:27:05Z</time>
      </trkpt>
      <trkpt lat="47.00659" lon="5.80682">
        <ele>304</ele>
        <time>2022-10-13T15:27:58Z</time>
      </trkpt>
      <trkpt lat="47.00773" lon="5.80672">
        <ele>293</ele>
        <time>2022-10-13T15:30:30Z</time>
      </trkpt>
      <trkpt lat="47.00792" lon="5.80658">
        <ele>293</ele>
        <time>2022-10-13T15:30:58Z</time>
      </trkpt>
      <trkpt lat="47.00794" lon="5.80657">
        <ele>293</ele>
        <time>2022-10-13T15:31:01Z</time>
      </trkpt>
      <trkpt lat="47.00825" lon="5.80698">
        <ele>288</ele>
        <time>2022-10-13T15:31:57Z</time>
      </trkpt>
      <trkpt lat="47.00888" lon="5.80675">
        <ele>296</ele>
        <time>2022-10-13T15:33:24Z</time>
      </trkpt>
      <trkpt lat="47.00925" lon="5.80597">
        <ele>307</ele>
        <time>2022-10-13T15:34:50Z</time>
      </trkpt>
      <trkpt lat="47.00975" lon="5.8057">
        <ele>311</ele>
        <time>2022-10-13T15:36:01Z</time>
      </trkpt>
      <trkpt lat="47.01125" lon="5.80572">
        <ele>312</ele>
        <time>2022-10-13T15:39:21Z</time>
      </trkpt>
      <trkpt lat="47.01212" lon="5.80632">
        <ele>306</ele>
        <time>2022-10-13T15:41:30Z</time>
      </trkpt>
      <trkpt lat="47.01443" lon="5.80625">
        <ele>320</ele>
        <time>2022-10-13T15:46:38Z</time>
      </trkpt>
      <trkpt lat="47.01629" lon="5.80597">
        <ele>322</ele>
        <time>2022-10-13T15:50:48Z</time>
      </trkpt>
      <trkpt lat="47.0174" lon="5.80694">
        <ele>318</ele>
        <time>2022-10-13T15:53:40Z</time>
      </trkpt>
      <trkpt lat="47.0189" lon="5.80788">
        <ele>302</ele>
        <time>2022-10-13T15:57:18Z</time>
      </trkpt>
      <trkpt lat="47.02027" lon="5.80814">
        <ele>290</ele>
        <time>2022-10-13T16:00:22Z</time>
      </trkpt>
      <trkpt lat="47.02085" lon="5.80857">
        <ele>282</ele>
        <time>2022-10-13T16:01:49Z</time>
      </trkpt>
      <trkpt lat="47.02125" lon="5.80936">
        <ele>273</ele>
        <time>2022-10-13T16:03:18Z</time>
      </trkpt>
      <trkpt lat="47.02195" lon="5.80915">
        <ele>266</ele>
        <time>2022-10-13T16:04:54Z</time>
      </trkpt>
      <trkpt lat="47.02283" lon="5.80928">
        <ele>263</ele>
        <time>2022-10-13T16:06:52Z</time>
      </trkpt>
      <trkpt lat="47.02405" lon="5.80992">
        <ele>260</ele>
        <time>2022-10-13T16:09:45Z</time>
      </trkpt>
      <trkpt lat="47.02403" lon="5.80996">
        <ele>259</ele>
        <time>2022-10-13T16:09:49Z</time>
      </trkpt>
      <trkpt lat="47.0243" lon="5.81023">
        <ele>257</ele>
        <time>2022-10-13T16:10:33Z</time>
      </trkpt>
      <trkpt lat="47.02455" lon="5.81041">
        <ele>256</ele>
        <time>2022-10-13T16:11:10Z</time>
      </trkpt>
      <trkpt lat="47.02494" lon="5.81062">
        <ele>254</ele>
        <time>2022-10-13T16:12:05Z</time>
      </trkpt>
      <trkpt lat="47.02554" lon="5.8109">
        <ele>255</ele>
        <time>2022-10-13T16:13:29Z</time>
      </trkpt>
      <trkpt lat="47.02695" lon="5.81138">
        <ele>260</ele>
        <time>2022-10-13T16:16:42Z</time>
      </trkpt>
      <trkpt lat="47.0283" lon="5.81187">
        <ele>266</ele>
        <time>2022-10-13T16:19:48Z</time>
      </trkpt>
      <trkpt lat="47.03156" lon="5.81355">
        <ele>256</ele>
        <time>2022-10-13T16:27:29Z</time>
      </trkpt>
      <trkpt lat="47.03271" lon="5.81327">
        <ele>261</ele>
        <time>2022-10-13T16:30:05Z</time>
      </trkpt>
      <trkpt lat="47.03397" lon="5.81376">
        <ele>255</ele>
        <time>2022-10-13T16:32:59Z</time>
      </trkpt>
      <trkpt lat="47.03551" lon="5.81409">
        <ele>252</ele>
        <time>2022-10-13T16:36:26Z</time>
      </trkpt>
      <trkpt lat="47.03684" lon="5.81458">
        <ele>246</ele>
        <time>2022-10-13T16:39:29Z</time>
      </trkpt>
      <trkpt lat="47.03715" lon="5.81474">
        <ele>244</ele>
        <time>2022-10-13T16:40:13Z</time>
      </trkpt>
      <trkpt lat="47.03875" lon="5.8149">
        <ele>242</ele>
        <time>2022-10-13T16:43:47Z</time>
      </trkpt>
      <trkpt lat="47.03919" lon="5.81481">
        <ele>242</ele>
        <time>2022-10-13T16:44:46Z</time>
      </trkpt>
      <trkpt lat="47.03932" lon="5.81475">
        <ele>242</ele>
        <time>2022-10-13T16:45:05Z</time>
      </trkpt>
      <trkpt lat="47.03974" lon="5.81438">
        <ele>241</ele>
        <time>2022-10-13T16:46:10Z</time>
      </trkpt>
      <trkpt lat="47.03982" lon="5.81429">
        <ele>241</ele>
        <time>2022-10-13T16:46:23Z</time>
      </trkpt>
      <trkpt lat="47.03985" lon="5.81422">
        <ele>241</ele>
        <time>2022-10-13T16:46:31Z</time>
      </trkpt>
      <trkpt lat="47.0398" lon="5.81416">
        <ele>242</ele>
        <time>2022-10-13T16:46:40Z</time>
      </trkpt>
      <trkpt lat="47.03976" lon="5.81412">
        <ele>242</ele>
        <time>2022-10-13T16:46:46Z</time>
      </trkpt>
      <trkpt lat="47.03971" lon="5.81385">
        <ele>244</ele>
        <time>2022-10-13T16:47:11Z</time>
      </trkpt>
      <trkpt lat="47.03954" lon="5.81316">
        <ele>250</ele>
        <time>2022-10-13T16:48:18Z</time>
      </trkpt>
      <trkpt lat="47.03954" lon="5.81303">
        <ele>250</ele>
        <time>2022-10-13T16:48:30Z</time>
      </trkpt>
      <trkpt lat="47.03954" lon="5.81272">
        <ele>252</ele>
        <time>2022-10-13T16:48:58Z</time>
      </trkpt>
      <trkpt lat="47.03951" lon="5.81253">
        <ele>253</ele>
        <time>2022-10-13T16:49:16Z</time>
      </trkpt>
      <trkpt lat="47.03946" lon="5.81213">
        <ele>254</ele>
        <time>2022-10-13T16:49:53Z</time>
      </trkpt>
      <trkpt lat="47.03935" lon="5.81173">
        <ele>255</ele>
        <time>2022-10-13T16:50:32Z</time>
      </trkpt>
      <trkpt lat="47.03929" lon="5.81148">
        <ele>256</ele>
        <time>2022-10-13T16:50:56Z</time>
      </trkpt>
      <trkpt lat="47.03905" lon="5.81085">
        <ele>260</ele>
        <time>2022-10-13T16:52:02Z</time>
      </trkpt>
      <trkpt lat="47.039" lon="5.81067">
        <ele>262</ele>
        <time>2022-10-13T16:52:20Z</time>
      </trkpt>
      <trkpt lat="47.03895" lon="5.81041">
        <ele>265</ele>
        <time>2022-10-13T16:52:44Z</time>
      </trkpt>
      <trkpt lat="47.03896" lon="5.81016">
        <ele>267</ele>
        <time>2022-10-13T16:53:07Z</time>
      </trkpt>
      <trkpt lat="47.03894" lon="5.80983">
        <ele>267</ele>
        <time>2022-10-13T16:53:37Z</time>
      </trkpt>
      <trkpt lat="47.03896" lon="5.81016">
        <ele>267</ele>
        <time>2022-10-13T16:54:07Z</time>
      </trkpt>
      <trkpt lat="47.03895" lon="5.81041">
        <ele>265</ele>
        <time>2022-10-13T16:54:30Z</time>
      </trkpt>
      <trkpt lat="47.03872" lon="5.81026">
        <ele>269</ele>
        <time>2022-10-13T16:55:04Z</time>
      </trkpt>
      <trkpt lat="47.03825" lon="5.80987">
        <ele>278</ele>
        <time>2022-10-13T16:56:16Z</time>
      </trkpt>
      <trkpt lat="47.03771" lon="5.80964">
        <ele>291</ele>
        <time>2022-10-13T16:57:31Z</time>
      </trkpt>
      <trkpt lat="47.03674" lon="5.80883">
        <ele>300</ele>
        <time>2022-10-13T17:00:00Z</time>
      </trkpt>
      <trkpt lat="47.03633" lon="5.80823">
        <ele>297</ele>
        <time>2022-10-13T17:01:17Z</time>
      </trkpt>
      <trkpt lat="47.03599" lon="5.80796">
        <ele>297</ele>
        <time>2022-10-13T17:02:08Z</time>
      </trkpt>
      <trkpt lat="47.03562" lon="5.80757">
        <ele>296</ele>
        <time>2022-10-13T17:03:09Z</time>
      </trkpt>
      <trkpt lat="47.03477" lon="5.80679">
        <ele>293</ele>
        <time>2022-10-13T17:05:23Z</time>
      </trkpt>
      <trkpt lat="47.03457" lon="5.80656">
        <ele>292</ele>
        <time>2022-10-13T17:05:57Z</time>
      </trkpt>
      <trkpt lat="47.03443" lon="5.80647">
        <ele>293</ele>
        <time>2022-10-13T17:06:17Z</time>
      </trkpt>
      <trkpt lat="47.0346" lon="5.80646">
        <ele>290</ele>
        <time>2022-10-13T17:06:40Z</time>
      </trkpt>
      <trkpt lat="47.03443" lon="5.80647">
        <ele>293</ele>
        <time>2022-10-13T17:07:03Z</time>
      </trkpt>
      <trkpt lat="47.03423" lon="5.80649">
        <ele>296</ele>
        <time>2022-10-13T17:07:29Z</time>
      </trkpt>
      <trkpt lat="47.03369" lon="5.80661">
        <ele>303</ele>
        <time>2022-10-13T17:08:42Z</time>
      </trkpt>
      <trkpt lat="47.03423" lon="5.80649">
        <ele>296</ele>
        <time>2022-10-13T17:09:55Z</time>
      </trkpt>
      <trkpt lat="47.03443" lon="5.80647">
        <ele>293</ele>
        <time>2022-10-13T17:10:22Z</time>
      </trkpt>
      <trkpt lat="47.03406" lon="5.80615">
        <ele>293</ele>
        <time>2022-10-13T17:11:19Z</time>
      </trkpt>
      <trkpt lat="47.03389" lon="5.80605">
        <ele>293</ele>
        <time>2022-10-13T17:11:44Z</time>
      </trkpt>
      <trkpt lat="47.0333" lon="5.806">
        <ele>298</ele>
        <time>2022-10-13T17:13:03Z</time>
      </trkpt>
      <trkpt lat="47.03314" lon="5.80595">
        <ele>298</ele>
        <time>2022-10-13T17:13:24Z</time>
      </trkpt>
      <trkpt lat="47.0333" lon="5.806">
        <ele>298</ele>
        <time>2022-10-13T17:13:46Z</time>
      </trkpt>
      <trkpt lat="47.0334" lon="5.80601">
        <ele>297</ele>
        <time>2022-10-13T17:14:00Z</time>
      </trkpt>
      <trkpt lat="47.03359" lon="5.80602">
        <ele>295</ele>
        <time>2022-10-13T17:14:25Z</time>
      </trkpt>
      <trkpt lat="47.03382" lon="5.80604">
        <ele>293</ele>
        <time>2022-10-13T17:14:56Z</time>
      </trkpt>
      <trkpt lat="47.03389" lon="5.80605">
        <ele>293</ele>
        <time>2022-10-13T17:15:05Z</time>
      </trkpt>
      <trkpt lat="47.03398" lon="5.8061">
        <ele>293</ele>
        <time>2022-10-13T17:15:18Z</time>
      </trkpt>
      <trkpt lat="47.03416" lon="5.80623">
        <ele>293</ele>
        <time>2022-10-13T17:15:45Z</time>
      </trkpt>
      <trkpt lat="47.03434" lon="5.80639">
        <ele>293</ele>
        <time>2022-10-13T17:16:13Z</time>
      </trkpt>
      <trkpt lat="47.03443" lon="5.80647">
        <ele>293</ele>
        <time>2022-10-13T17:16:27Z</time>
      </trkpt>
      <trkpt lat="47.03423" lon="5.80649">
        <ele>296</ele>
        <time>2022-10-13T17:16:54Z</time>
      </trkpt>
      <trkpt lat="47.03365" lon="5.80662">
        <ele>303</ele>
        <time>2022-10-13T17:18:12Z</time>
      </trkpt>
      <trkpt lat="47.03191" lon="5.80707">
        <ele>324</ele>
        <time>2022-10-13T17:22:08Z</time>
      </trkpt>
      <trkpt lat="47.03188" lon="5.80713">
        <ele>325</ele>
        <time>2022-10-13T17:22:15Z</time>
      </trkpt>
      <trkpt lat="47.03191" lon="5.80707">
        <ele>324</ele>
        <time>2022-10-13T17:22:21Z</time>
      </trkpt>
      <trkpt lat="47.03169" lon="5.80712">
        <ele>326</ele>
        <time>2022-10-13T17:22:51Z</time>
      </trkpt>
      <trkpt lat="47.03116" lon="5.8073">
        <ele>331</ele>
        <time>2022-10-13T17:24:04Z</time>
      </trkpt>
      <trkpt lat="47.03103" lon="5.80731">
        <ele>332</ele>
        <time>2022-10-13T17:24:21Z</time>
      </trkpt>
      <trkpt lat="47.03046" lon="5.80723">
        <ele>332</ele>
        <time>2022-10-13T17:25:37Z</time>
      </trkpt>
      <trkpt lat="47.0302" lon="5.80723">
        <ele>332</ele>
        <time>2022-10-13T17:26:12Z</time>
      </trkpt>
      <trkpt lat="47.02973" lon="5.80717">
        <ele>329</ele>
        <time>2022-10-13T17:27:15Z</time>
      </trkpt>
      <trkpt lat="47.02866" lon="5.80694">
        <ele>319</ele>
        <time>2022-10-13T17:29:39Z</time>
      </trkpt>
      <trkpt lat="47.02852" lon="5.8069">
        <ele>318</ele>
        <time>2022-10-13T17:29:58Z</time>
      </trkpt>
      <trkpt lat="47.02829" lon="5.80677">
        <ele>316</ele>
        <time>2022-10-13T17:30:31Z</time>
      </trkpt>
      <trkpt lat="47.02795" lon="5.80648">
        <ele>313</ele>
        <time>2022-10-13T17:31:24Z</time>
      </trkpt>
      <trkpt lat="47.02743" lon="5.80611">
        <ele>307</ele>
        <time>2022-10-13T17:32:41Z</time>
      </trkpt>
      <trkpt lat="47.02718" lon="5.80607">
        <ele>303</ele>
        <time>2022-10-13T17:33:14Z</time>
      </trkpt>
      <trkpt lat="47.027" lon="5.80607">
        <ele>301</ele>
        <time>2022-10-13T17:33:38Z</time>
      </trkpt>
      <trkpt lat="47.02655" lon="5.8063">
        <ele>295</ele>
        <time>2022-10-13T17:34:42Z</time>
      </trkpt>
      <trkpt lat="47.02639" lon="5.80635">
        <ele>293</ele>
        <time>2022-10-13T17:35:04Z</time>
      </trkpt>
      <trkpt lat="47.02596" lon="5.80634">
        <ele>289</ele>
        <time>2022-10-13T17:36:01Z</time>
      </trkpt>
      <trkpt lat="47.02568" lon="5.80636">
        <ele>286</ele>
        <time>2022-10-13T17:36:39Z</time>
      </trkpt>
      <trkpt lat="47.02561" lon="5.80634">
        <ele>285</ele>
        <time>2022-10-13T17:36:48Z</time>
      </trkpt>
      <trkpt lat="47.02552" lon="5.80631">
        <ele>284</ele>
        <time>2022-10-13T17:37:00Z</time>
      </trkpt>
      <trkpt lat="47.0246" lon="5.80575">
        <ele>276</ele>
        <time>2022-10-13T17:39:13Z</time>
      </trkpt>
      <trkpt lat="47.02422" lon="5.80557">
        <ele>273</ele>
        <time>2022-10-13T17:40:07Z</time>
      </trkpt>
      <trkpt lat="47.02418" lon="5.80549">
        <ele>273</ele>
        <time>2022-10-13T17:40:16Z</time>
      </trkpt>
      <trkpt lat="47.02414" lon="5.80543">
        <ele>272</ele>
        <time>2022-10-13T17:40:23Z</time>
      </trkpt>
      <trkpt lat="47.02403" lon="5.80527">
        <ele>272</ele>
        <time>2022-10-13T17:40:44Z</time>
      </trkpt>
      <trkpt lat="47.02362" lon="5.80485">
        <ele>271</ele>
        <time>2022-10-13T17:41:51Z</time>
      </trkpt>
      <trkpt lat="47.02351" lon="5.80468">
        <ele>270</ele>
        <time>2022-10-13T17:42:12Z</time>
      </trkpt>
      <trkpt lat="47.0234" lon="5.80456">
        <ele>269</ele>
        <time>2022-10-13T17:42:30Z</time>
      </trkpt>
      <trkpt lat="47.02271" lon="5.80406">
        <ele>262</ele>
        <time>2022-10-13T17:44:13Z</time>
      </trkpt>
      <trkpt lat="47.02252" lon="5.8039">
        <ele>261</ele>
        <time>2022-10-13T17:44:42Z</time>
      </trkpt>
      <trkpt lat="47.02178" lon="5.80301">
        <ele>252</ele>
        <time>2022-10-13T17:46:50Z</time>
      </trkpt>
      <trkpt lat="47.0217" lon="5.80292">
        <ele>251</ele>
        <time>2022-10-13T17:47:03Z</time>
      </trkpt>
      <trkpt lat="47.0216" lon="5.80297">
        <ele>251</ele>
        <time>2022-10-13T17:47:18Z</time>
      </trkpt>
      <trkpt lat="47.02139" lon="5.80297">
        <ele>251</ele>
        <time>2022-10-13T17:47:46Z</time>
      </trkpt>
      <trkpt lat="47.02129" lon="5.803">
        <ele>251</ele>
        <time>2022-10-13T17:47:59Z</time>
      </trkpt>
      <trkpt lat="47.02081" lon="5.80335">
        <ele>252</ele>
        <time>2022-10-13T17:49:11Z</time>
      </trkpt>
      <trkpt lat="47.02077" lon="5.80336">
        <ele>253</ele>
        <time>2022-10-13T17:49:16Z</time>
      </trkpt>
      <trkpt lat="47.0207" lon="5.80338">
        <ele>253</ele>
        <time>2022-10-13T17:49:26Z</time>
      </trkpt>
      <trkpt lat="47.02018" lon="5.80336">
        <ele>257</ele>
        <time>2022-10-13T17:50:35Z</time>
      </trkpt>
      <trkpt lat="47.01959" lon="5.80344">
        <ele>259</ele>
        <time>2022-10-13T17:51:54Z</time>
      </trkpt>
      <trkpt lat="47.01955" lon="5.80363">
        <ele>260</ele>
        <time>2022-10-13T17:52:12Z</time>
      </trkpt>
      <trkpt lat="47.01959" lon="5.80344">
        <ele>259</ele>
        <time>2022-10-13T17:52:30Z</time>
      </trkpt>
      <trkpt lat="47.01882" lon="5.80283">
        <ele>261</ele>
        <time>2022-10-13T17:54:27Z</time>
      </trkpt>
      <trkpt lat="47.01841" lon="5.80256">
        <ele>262</ele>
        <time>2022-10-13T17:55:27Z</time>
      </trkpt>
      <trkpt lat="47.01756" lon="5.80221">
        <ele>262</ele>
        <time>2022-10-13T17:57:25Z</time>
      </trkpt>
      <trkpt lat="47.0173" lon="5.80209">
        <ele>262</ele>
        <time>2022-10-13T17:58:01Z</time>
      </trkpt>
      <trkpt lat="47.0172" lon="5.80199">
        <ele>262</ele>
        <time>2022-10-13T17:58:17Z</time>
      </trkpt>
      <trkpt lat="47.01692" lon="5.80162">
        <ele>261</ele>
        <time>2022-10-13T17:59:08Z</time>
      </trkpt>
      <trkpt lat="47.01675" lon="5.80145">
        <ele>260</ele>
        <time>2022-10-13T17:59:35Z</time>
      </trkpt>
      <trkpt lat="47.01605" lon="5.8009">
        <ele>259</ele>
        <time>2022-10-13T18:01:21Z</time>
      </trkpt>
      <trkpt lat="47.01586" lon="5.80079">
        <ele>259</ele>
        <time>2022-10-13T18:01:48Z</time>
      </trkpt>
      <trkpt lat="47.01572" lon="5.80074">
        <ele>259</ele>
        <time>2022-10-13T18:02:08Z</time>
      </trkpt>
      <trkpt lat="47.01527" lon="5.80062">
        <ele>258</ele>
        <time>2022-10-13T18:03:09Z</time>
      </trkpt>
      <trkpt lat="47.01509" lon="5.8005">
        <ele>258</ele>
        <time>2022-10-13T18:03:35Z</time>
      </trkpt>
      <trkpt lat="47.01494" lon="5.80035">
        <ele>257</ele>
        <time>2022-10-13T18:03:59Z</time>
      </trkpt>
      <trkpt lat="47.01467" lon="5.79999">
        <ele>257</ele>
        <time>2022-10-13T18:04:48Z</time>
      </trkpt>
      <trkpt lat="47.01459" lon="5.7999">
        <ele>256</ele>
        <time>2022-10-13T18:05:01Z</time>
      </trkpt>
      <trkpt lat="47.0145" lon="5.79989">
        <ele>256</ele>
        <time>2022-10-13T18:05:13Z</time>
      </trkpt>
      <trkpt lat="47.01402" lon="5.80006">
        <ele>258</ele>
        <time>2022-10-13T18:06:19Z</time>
      </trkpt>
      <trkpt lat="47.01338" lon="5.80049">
        <ele>262</ele>
        <time>2022-10-13T18:07:53Z</time>
      </trkpt>
      <trkpt lat="47.0131" lon="5.80056">
        <ele>263</ele>
        <time>2022-10-13T18:08:31Z</time>
      </trkpt>
      <trkpt lat="47.01298" lon="5.80058">
        <ele>263</ele>
        <time>2022-10-13T18:08:47Z</time>
      </trkpt>
      <trkpt lat="47.01291" lon="5.80152">
        <ele>265</ele>
        <time>2022-10-13T18:10:13Z</time>
      </trkpt>
      <trkpt lat="47.0129" lon="5.80226">
        <ele>270</ele>
        <time>2022-10-13T18:11:21Z</time>
      </trkpt>
      <trkpt lat="47.01293" lon="5.80287">
        <ele>276</ele>
        <time>2022-10-13T18:12:16Z</time>
      </trkpt>
      <trkpt lat="47.01291" lon="5.80292">
        <ele>277</ele>
        <time>2022-10-13T18:12:22Z</time>
      </trkpt>
      <trkpt lat="47.01286" lon="5.80297">
        <ele>277</ele>
        <time>2022-10-13T18:12:30Z</time>
      </trkpt>
      <trkpt lat="47.01259" lon="5.80294">
        <ele>276</ele>
        <time>2022-10-13T18:13:06Z</time>
      </trkpt>
      <trkpt lat="47.01217" lon="5.80282">
        <ele>274</ele>
        <time>2022-10-13T18:14:03Z</time>
      </trkpt>
      <trkpt lat="47.01148" lon="5.80275">
        <ele>274</ele>
        <time>2022-10-13T18:15:35Z</time>
      </trkpt>
      <trkpt lat="47.0111" lon="5.80265">
        <ele>273</ele>
        <time>2022-10-13T18:16:27Z</time>
      </trkpt>
      <trkpt lat="47.01076" lon="5.80262">
        <ele>273</ele>
        <time>2022-10-13T18:17:12Z</time>
      </trkpt>
      <trkpt lat="47.0095" lon="5.80241">
        <ele>271</ele>
        <time>2022-10-13T18:20:01Z</time>
      </trkpt>
      <trkpt lat="47.00941" lon="5.80239">
        <ele>271</ele>
        <time>2022-10-13T18:20:14Z</time>
      </trkpt>
      <trkpt lat="47.00937" lon="5.8026">
        <ele>274</ele>
        <time>2022-10-13T18:20:33Z</time>
      </trkpt>
      <trkpt lat="47.0093" lon="5.80277">
        <ele>276</ele>
        <time>2022-10-13T18:20:52Z</time>
      </trkpt>
      <trkpt lat="47.00913" lon="5.803">
        <ele>280</ele>
        <time>2022-10-13T18:21:22Z</time>
      </trkpt>
      <trkpt lat="47.00813" lon="5.80347">
        <ele>282</ele>
        <time>2022-10-13T18:23:43Z</time>
      </trkpt>
      <trkpt lat="47.00789" lon="5.80371">
        <ele>285</ele>
        <time>2022-10-13T18:24:21Z</time>
      </trkpt>
      <trkpt lat="47.00764" lon="5.8041">
        <ele>288</ele>
        <time>2022-10-13T18:25:10Z</time>
      </trkpt>
      <trkpt lat="47.00741" lon="5.80462">
        <ele>290</ele>
        <time>2022-10-13T18:26:06Z</time>
      </trkpt>
      <trkpt lat="47.00737" lon="5.80481">
        <ele>291</ele>
        <time>2022-10-13T18:26:24Z</time>
      </trkpt>
      <trkpt lat="47.00736" lon="5.805">
        <ele>293</ele>
        <time>2022-10-13T18:26:42Z</time>
      </trkpt>
      <trkpt lat="47.00738" lon="5.80527">
        <ele>293</ele>
        <time>2022-10-13T18:27:07Z</time>
      </trkpt>
      <trkpt lat="47.00736" lon="5.805">
        <ele>293</ele>
        <time>2022-10-13T18:27:31Z</time>
      </trkpt>
      <trkpt lat="47.00737" lon="5.80481">
        <ele>291</ele>
        <time>2022-10-13T18:27:49Z</time>
      </trkpt>
      <trkpt lat="47.00731" lon="5.80477">
        <ele>291</ele>
        <time>2022-10-13T18:27:57Z</time>
      </trkpt>
      <trkpt lat="47.00699" lon="5.80493">
        <ele>293</ele>
        <time>2022-10-13T18:28:42Z</time>
      </trkpt>
      <trkpt lat="47.0067" lon="5.80502">
        <ele>295</ele>
        <time>2022-10-13T18:29:22Z</time>
      </trkpt>
      <trkpt lat="47.00649" lon="5.80504">
        <ele>297</ele>
        <time>2022-10-13T18:29:50Z</time>
      </trkpt>
      <trkpt lat="47.00543" lon="5.80482">
        <ele>309</ele>
        <time>2022-10-13T18:32:13Z</time>
      </trkpt>
      <trkpt lat="47.00542" lon="5.80482">
        <ele>309</ele>
        <time>2022-10-13T18:32:14Z</time>
      </trkpt>
      <trkpt lat="47.00536" lon="5.80488">
        <ele>310</ele>
        <time>2022-10-13T18:32:24Z</time>
      </trkpt>
      <trkpt lat="47.0053" lon="5.805">
        <ele>312</ele>
        <time>2022-10-13T18:32:38Z</time>
      </trkpt>
      <trkpt lat="47.00531" lon="5.80508">
        <ele>313</ele>
        <time>2022-10-13T18:32:45Z</time>
      </trkpt>
      <trkpt lat="47.00518" lon="5.80513">
        <ele>315</ele>
        <time>2022-10-13T18:33:03Z</time>
      </trkpt>
      <trkpt lat="47.00501" lon="5.80519">
        <ele>318</ele>
        <time>2022-10-13T18:33:26Z</time>
      </trkpt>
      <trkpt lat="47.00486" lon="5.80519">
        <ele>319</ele>
        <time>2022-10-13T18:33:46Z</time>
      </trkpt>
      <trkpt lat="47.00468" lon="5.80525">
        <ele>322</ele>
        <time>2022-10-13T18:34:11Z</time>
      </trkpt>
      <trkpt lat="47.0044" lon="5.80527">
        <ele>326</ele>
        <time>2022-10-13T18:34:48Z</time>
      </trkpt>
      <trkpt lat="47.00431" lon="5.80532">
        <ele>327</ele>
        <time>2022-10-13T18:35:01Z</time>
      </trkpt>
      <trkpt lat="47.00409" lon="5.80534">
        <ele>330</ele>
        <time>2022-10-13T18:35:31Z</time>
      </trkpt>
      <trkpt lat="47.0034" lon="5.8053">
        <ele>338</ele>
        <time>2022-10-13T18:37:03Z</time>
      </trkpt>
      <trkpt lat="47.00317" lon="5.80521">
        <ele>340</ele>
        <time>2022-10-13T18:37:34Z</time>
      </trkpt>
      <trkpt lat="47.00288" lon="5.80514">
        <ele>344</ele>
        <time>2022-10-13T18:38:14Z</time>
      </trkpt>
      <trkpt lat="47.00239" lon="5.80485">
        <ele>346</ele>
        <time>2022-10-13T18:39:24Z</time>
      </trkpt>
      <trkpt lat="47.00186" lon="5.80463">
        <ele>346</ele>
        <time>2022-10-13T18:40:38Z</time>
      </trkpt>
      <trkpt lat="47.00201" lon="5.80468">
        <ele>346</ele>
        <time>2022-10-13T18:40:58Z</time>
      </trkpt>
      <trkpt lat="47.00167" lon="5.80457">
        <ele>346</ele>
        <time>2022-10-13T18:41:45Z</time>
      </trkpt>
      <trkpt lat="47.00148" lon="5.80454">
        <ele>346</ele>
        <time>2022-10-13T18:42:10Z</time>
      </trkpt>
      <trkpt lat="47.00078" lon="5.80453">
        <ele>349</ele>
        <time>2022-10-13T18:43:44Z</time>
      </trkpt>
      <trkpt lat="47.00085" lon="5.80353">
        <ele>336</ele>
        <time>2022-10-13T18:45:15Z</time>
      </trkpt>
      <trkpt lat="47.00083" lon="5.80371">
        <ele>339</ele>
        <time>2022-10-13T18:45:32Z</time>
      </trkpt>
      <trkpt lat="47.00078" lon="5.80453">
        <ele>349</ele>
        <time>2022-10-13T18:46:47Z</time>
      </trkpt>
      <trkpt lat="47.00062" lon="5.80454">
        <ele>350</ele>
        <time>2022-10-13T18:47:08Z</time>
      </trkpt>
      <trkpt lat="47.00046" lon="5.80452">
        <ele>351</ele>
        <time>2022-10-13T18:47:29Z</time>
      </trkpt>
      <trkpt lat="47.00043" lon="5.80451">
        <ele>351</ele>
        <time>2022-10-13T18:47:34Z</time>
      </trkpt>
      <trkpt lat="47.00079" lon="5.80451">
        <ele>349</ele>
        <time>2022-10-13T18:48:22Z</time>
      </trkpt>
      <trkpt lat="47.00078" lon="5.80453">
        <ele>349</ele>
        <time>2022-10-13T18:48:24Z</time>
      </trkpt>
      <trkpt lat="47.00103" lon="5.80453">
        <ele>348</ele>
        <time>2022-10-13T18:48:57Z</time>
      </trkpt>
      <trkpt lat="47.00138" lon="5.80453">
        <ele>347</ele>
        <time>2022-10-13T18:49:44Z</time>
      </trkpt>
      <trkpt lat="47.00163" lon="5.80456">
        <ele>346</ele>
        <time>2022-10-13T18:50:17Z</time>
      </trkpt>
      <trkpt lat="47.00201" lon="5.80468">
        <ele>346</ele>
        <time>2022-10-13T18:51:09Z</time>
      </trkpt>
      <trkpt lat="47.00244" lon="5.80488">
        <ele>347</ele>
        <time>2022-10-13T18:52:09Z</time>
      </trkpt>
      <trkpt lat="47.00202" lon="5.80469">
        <ele>346</ele>
        <time>2022-10-13T18:53:08Z</time>
      </trkpt>
      <trkpt lat="47.00167" lon="5.80457">
        <ele>346</ele>
        <time>2022-10-13T18:53:56Z</time>
      </trkpt>
      <trkpt lat="47.00145" lon="5.80453">
        <ele>346</ele>
        <time>2022-10-13T18:54:26Z</time>
      </trkpt>
      <trkpt lat="47.00062" lon="5.80454">
        <ele>350</ele>
        <time>2022-10-13T18:56:16Z</time>
      </trkpt>
      <trkpt lat="47.00046" lon="5.80452">
        <ele>351</ele>
        <time>2022-10-13T18:56:38Z</time>
      </trkpt>
      <trkpt lat="47.00046" lon="5.80458">
        <ele>351</ele>
        <time>2022-10-13T18:56:43Z</time>
      </trkpt>
      <trkpt lat="47.00047" lon="5.80477">
        <ele>352</ele>
        <time>2022-10-13T18:57:01Z</time>
      </trkpt>
      <trkpt lat="47.00054" lon="5.80504">
        <ele>354</ele>
        <time>2022-10-13T18:57:27Z</time>
      </trkpt>
      <trkpt lat="47.00071" lon="5.80523">
        <ele>353</ele>
        <time>2022-10-13T18:57:55Z</time>
      </trkpt>
      <trkpt lat="47.00081" lon="5.80529">
        <ele>353</ele>
        <time>2022-10-13T18:58:10Z</time>
      </trkpt>
      <trkpt lat="47.001" lon="5.8055">
        <ele>353</ele>
        <time>2022-10-13T18:58:42Z</time>
      </trkpt>
      <trkpt lat="47.00106" lon="5.80559">
        <ele>353</ele>
        <time>2022-10-13T18:58:53Z</time>
      </trkpt>
      <trkpt lat="47.0014" lon="5.80597">
        <ele>355</ele>
        <time>2022-10-13T18:59:50Z</time>
      </trkpt>
      <trkpt lat="47.00156" lon="5.80619">
        <ele>356</ele>
        <time>2022-10-13T19:00:19Z</time>
      </trkpt>
      <trkpt lat="47.00201" lon="5.80651">
        <ele>357</ele>
        <time>2022-10-13T19:01:26Z</time>
      </trkpt>
      <trkpt lat="47.00212" lon="5.8068">
        <ele>358</ele>
        <time>2022-10-13T19:01:56Z</time>
      </trkpt>
      <trkpt lat="47.00214" lon="5.807">
        <ele>358</ele>
        <time>2022-10-13T19:02:15Z</time>
      </trkpt>
      <trkpt lat="47.00225" lon="5.80727">
        <ele>359</ele>
        <time>2022-10-13T19:02:43Z</time>
      </trkpt>
      <trkpt lat="47.00233" lon="5.80754">
        <ele>359</ele>
        <time>2022-10-13T19:03:10Z</time>
      </trkpt>
      <trkpt lat="47.00258" lon="5.80787">
        <ele>359</ele>
        <time>2022-10-13T19:03:55Z</time>
      </trkpt>
      <trkpt lat="47.00272" lon="5.80794">
        <ele>358</ele>
        <time>2022-10-13T19:04:15Z</time>
      </trkpt>
      <trkpt lat="47.00271" lon="5.80804">
        <ele>357</ele>
        <time>2022-10-13T19:04:24Z</time>
      </trkpt>
      <trkpt lat="47.0027" lon="5.80818">
        <ele>357</ele>
        <time>2022-10-13T19:04:37Z</time>
      </trkpt>
      <trkpt lat="47.00248" lon="5.80868">
        <ele>357</ele>
        <time>2022-10-13T19:05:31Z</time>
      </trkpt>
      <trkpt lat="47.00251" lon="5.809">
        <ele>356</ele>
        <time>2022-10-13T19:06:00Z</time>
      </trkpt>
      <trkpt lat="47.00243" lon="5.80987">
        <ele>355</ele>
        <time>2022-10-13T19:07:20Z</time>
      </trkpt>
      <trkpt lat="47.00204" lon="5.81058">
        <ele>354</ele>
        <time>2022-10-13T19:08:43Z</time>
      </trkpt>
      <trkpt lat="47.00177" lon="5.811">
        <ele>355</ele>
        <time>2022-10-13T19:09:36Z</time>
      </trkpt>
      <trkpt lat="47.00169" lon="5.81134">
        <ele>356</ele>
        <time>2022-10-13T19:10:08Z</time>
      </trkpt>
      <trkpt lat="47.00161" lon="5.8117">
        <ele>356</ele>
        <time>2022-10-13T19:10:43Z</time>
      </trkpt>
      <trkpt lat="47.00155" lon="5.81238">
        <ele>356</ele>
        <time>2022-10-13T19:11:45Z</time>
      </trkpt>
      <trkpt lat="47.00148" lon="5.81286">
        <ele>353</ele>
        <time>2022-10-13T19:12:30Z</time>
      </trkpt>
      <trkpt lat="47.00119" lon="5.81612">
        <ele>354</ele>
        <time>2022-10-13T19:17:29Z</time>
      </trkpt>
      <trkpt lat="47.00111" lon="5.81721">
        <ele>352</ele>
        <time>2022-10-13T19:19:09Z</time>
      </trkpt>
      <trkpt lat="47.00106" lon="5.8182">
        <ele>344</ele>
        <time>2022-10-13T19:20:39Z</time>
      </trkpt>
      <trkpt lat="47.00114" lon="5.81853">
        <ele>334</ele>
        <time>2022-10-13T19:21:11Z</time>
      </trkpt>
      <trkpt lat="47.00116" lon="5.81865">
        <ele>331</ele>
        <time>2022-10-13T19:21:22Z</time>
      </trkpt>
      <trkpt lat="47.00114" lon="5.81882">
        <ele>328</ele>
        <time>2022-10-13T19:21:38Z</time>
      </trkpt>
      <trkpt lat="47.00105" lon="5.81905">
        <ele>327</ele>
        <time>2022-10-13T19:22:02Z</time>
      </trkpt>
      <trkpt lat="47.00082" lon="5.81923">
        <ele>333</ele>
        <time>2022-10-13T19:22:37Z</time>
      </trkpt>
      <trkpt lat="47.0006" lon="5.81923">
        <ele>336</ele>
        <time>2022-10-13T19:23:06Z</time>
      </trkpt>
      <trkpt lat="47.00042" lon="5.81913">
        <ele>342</ele>
        <time>2022-10-13T19:23:32Z</time>
      </trkpt>
      <trkpt lat="46.99968" lon="5.81864">
        <ele>358</ele>
        <time>2022-10-13T19:25:20Z</time>
      </trkpt>
      <trkpt lat="46.99956" lon="5.81852">
        <ele>360</ele>
        <time>2022-10-13T19:25:40Z</time>
      </trkpt>
      <trkpt lat="46.99918" lon="5.81783">
        <ele>368</ele>
        <time>2022-10-13T19:27:01Z</time>
      </trkpt>
      <trkpt lat="46.99911" lon="5.8178">
        <ele>368</ele>
        <time>2022-10-13T19:27:10Z</time>
      </trkpt>
      <trkpt lat="46.99891" lon="5.81771">
        <ele>369</ele>
        <time>2022-10-13T19:27:38Z</time>
      </trkpt>
      <trkpt lat="46.99859" lon="5.81776">
        <ele>369</ele>
        <time>2022-10-13T19:28:21Z</time>
      </trkpt>
      <trkpt lat="46.99799" lon="5.81752">
        <ele>371</ele>
        <time>2022-10-13T19:29:44Z</time>
      </trkpt>
      <trkpt lat="46.9977" lon="5.81737">
        <ele>372</ele>
        <time>2022-10-13T19:30:25Z</time>
      </trkpt>
      <trkpt lat="46.9975" lon="5.81732">
        <ele>372</ele>
        <time>2022-10-13T19:30:52Z</time>
      </trkpt>
      <trkpt lat="46.99727" lon="5.81732">
        <ele>369</ele>
        <time>2022-10-13T19:31:23Z</time>
      </trkpt>
      <trkpt lat="46.99683" lon="5.81698">
        <ele>366</ele>
        <time>2022-10-13T19:32:29Z</time>
      </trkpt>
      <trkpt lat="46.9965" lon="5.81688">
        <ele>362</ele>
        <time>2022-10-13T19:33:14Z</time>
      </trkpt>
      <trkpt lat="46.99616" lon="5.81698">
        <ele>355</ele>
        <time>2022-10-13T19:34:01Z</time>
      </trkpt>
      <trkpt lat="46.9959" lon="5.81689">
        <ele>352</ele>
        <time>2022-10-13T19:34:36Z</time>
      </trkpt>
      <trkpt lat="46.99479" lon="5.81601">
        <ele>341</ele>
        <time>2022-10-13T19:37:25Z</time>
      </trkpt>
      <trkpt lat="46.99483" lon="5.81592">
        <ele>341</ele>
        <time>2022-10-13T19:37:34Z</time>
      </trkpt>
      <trkpt lat="46.99479" lon="5.81601">
        <ele>341</ele>
        <time>2022-10-13T19:37:44Z</time>
      </trkpt>
      <trkpt lat="46.9947" lon="5.81642">
        <ele>336</ele>
        <time>2022-10-13T19:38:23Z</time>
      </trkpt>
      <trkpt lat="46.99464" lon="5.81715">
        <ele>327</ele>
        <time>2022-10-13T19:39:30Z</time>
      </trkpt>
      <trkpt lat="46.99447" lon="5.81795">
        <ele>315</ele>
        <time>2022-10-13T19:40:47Z</time>
      </trkpt>
      <trkpt lat="46.99435" lon="5.81824">
        <ele>310</ele>
        <time>2022-10-13T19:41:17Z</time>
      </trkpt>
      <trkpt lat="46.99415" lon="5.81842">
        <ele>305</ele>
        <time>2022-10-13T19:41:49Z</time>
      </trkpt>
      <trkpt lat="46.9943" lon="5.81848">
        <ele>306</ele>
        <time>2022-10-13T19:42:09Z</time>
      </trkpt>
      <trkpt lat="46.99443" lon="5.81852">
        <ele>307</ele>
        <time>2022-10-13T19:42:27Z</time>
      </trkpt>
      <trkpt lat="46.9947" lon="5.81853">
        <ele>310</ele>
        <time>2022-10-13T19:43:03Z</time>
      </trkpt>
      <trkpt lat="46.9953" lon="5.81883">
        <ele>306</ele>
        <time>2022-10-13T19:44:28Z</time>
      </trkpt>
      <trkpt lat="46.99657" lon="5.81924">
        <ele>303</ele>
        <time>2022-10-13T19:47:21Z</time>
      </trkpt>
      <trkpt lat="46.997" lon="5.81944">
        <ele>305</ele>
        <time>2022-10-13T19:48:22Z</time>
      </trkpt>
      <trkpt lat="46.99727" lon="5.81975">
        <ele>301</ele>
        <time>2022-10-13T19:49:07Z</time>
      </trkpt>
      <trkpt lat="46.99742" lon="5.82">
        <ele>297</ele>
        <time>2022-10-13T19:49:38Z</time>
      </trkpt>
      <trkpt lat="46.99774" lon="5.82033">
        <ele>294</ele>
        <time>2022-10-13T19:50:30Z</time>
      </trkpt>
      <trkpt lat="46.99817" lon="5.8207">
        <ele>291</ele>
        <time>2022-10-13T19:51:36Z</time>
      </trkpt>
      <trkpt lat="46.99878" lon="5.82109">
        <ele>288</ele>
        <time>2022-10-13T19:53:05Z</time>
      </trkpt>
      <trkpt lat="46.99901" lon="5.82117">
        <ele>289</ele>
        <time>2022-10-13T19:53:37Z</time>
      </trkpt>
      <trkpt lat="46.99995" lon="5.82162">
        <ele>276</ele>
        <time>2022-10-13T19:55:49Z</time>
      </trkpt>
      <trkpt lat="47.00027" lon="5.82181">
        <ele>269</ele>
        <time>2022-10-13T19:56:35Z</time>
      </trkpt>
      <trkpt lat="47.0004" lon="5.82195">
        <ele>266</ele>
        <time>2022-10-13T19:56:56Z</time>
      </trkpt>
      <trkpt lat="47.00071" lon="5.82247">
        <ele>257</ele>
        <time>2022-10-13T19:57:59Z</time>
      </trkpt>
      <trkpt lat="47.00075" lon="5.82263">
        <ele>257</ele>
        <time>2022-10-13T19:58:15Z</time>
      </trkpt>
      <trkpt lat="47.00125" lon="5.8224">
        <ele>256</ele>
        <time>2022-10-13T19:59:25Z</time>
      </trkpt>
      <trkpt lat="47.00137" lon="5.8224">
        <ele>255</ele>
        <time>2022-10-13T19:59:41Z</time>
      </trkpt>
      <trkpt lat="47.002" lon="5.82254">
        <ele>250</ele>
        <time>2022-10-13T20:01:06Z</time>
      </trkpt>
      <trkpt lat="47.00214" lon="5.82259">
        <ele>249</ele>
        <time>2022-10-13T20:01:25Z</time>
      </trkpt>
      <trkpt lat="47.00224" lon="5.82267">
        <ele>248</ele>
        <time>2022-10-13T20:01:40Z</time>
      </trkpt>
      <trkpt lat="47.0022" lon="5.82248">
        <ele>248</ele>
        <time>2022-10-13T20:01:58Z</time>
      </trkpt>
      <trkpt lat="47.00224" lon="5.82267">
        <ele>248</ele>
        <time>2022-10-13T20:02:16Z</time>
      </trkpt>
      <trkpt lat="47.00323" lon="5.82346">
        <ele>247</ele>
        <time>2022-10-13T20:04:47Z</time>
      </trkpt>
      <trkpt lat="47.00325" lon="5.82348">
        <ele>247</ele>
        <time>2022-10-13T20:04:50Z</time>
      </trkpt>
      <trkpt lat="47.00345" lon="5.8234">
        <ele>247</ele>
        <time>2022-10-13T20:05:18Z</time>
      </trkpt>
    </trkseg>
  </trk>
</gpx>